createdAt,value
2022-09-12T00:00:17.892Z,87
2022-09-12T00:01:18.982Z,87
2022-09-12T00:02:11.659Z,87
2022-09-12T00:03:20.218Z,87
2022-09-12T00:04:13.074Z,87
2022-09-12T00:05:21.896Z,87
2022-09-12T00:06:12.668Z,87
2022-09-12T00:07:14.593Z,88
2022-09-12T00:08:17.803Z,88
2022-09-12T00:09:16.096Z,88
2022-09-12T00:10:10.394Z,88
2022-09-12T00:11:17.751Z,88
2022-09-12T00:12:10.066Z,88
2022-09-12T00:13:17.690Z,88
2022-09-12T00:14:15.995Z,88
2022-09-12T00:15:15.802Z,88
2022-09-12T00:16:16.263Z,88
2022-09-12T00:17:16.532Z,88
2022-09-12T00:18:15.061Z,88
2022-09-12T00:19:18.441Z,88
2022-09-12T00:20:13.380Z,88
2022-09-12T00:21:20.270Z,88
2022-09-12T00:22:15.895Z,88
2022-09-12T00:23:17.093Z,88
2022-09-12T00:24:15.893Z,88
2022-09-12T00:25:10.579Z,88
2022-09-12T00:26:17.346Z,88
2022-09-12T00:27:16.086Z,88
2022-09-12T00:28:17.563Z,88
2022-09-12T00:29:16.120Z,88
2022-09-12T00:30:10.873Z,88
2022-09-12T00:31:19.335Z,88
2022-09-12T00:32:12.473Z,88
2022-09-12T00:33:18.331Z,88
2022-09-12T00:34:09.109Z,88
2022-09-12T00:35:17.383Z,88
2022-09-12T00:36:16.321Z,88
2022-09-12T00:37:14.285Z,88
2022-09-12T00:38:21.442Z,88
2022-09-12T00:39:09.960Z,88
2022-09-12T00:40:14.253Z,88
2022-09-12T00:41:16.845Z,88
2022-09-12T00:42:18.524Z,88
2022-09-12T00:43:09.107Z,88
2022-09-12T00:44:19.418Z,88
2022-09-12T00:45:15.044Z,88
2022-09-12T00:46:18.006Z,88
2022-09-12T00:47:14.369Z,88
2022-09-12T00:48:19.303Z,88
2022-09-12T00:49:14.240Z,88
2022-09-12T00:50:18.151Z,88
2022-09-12T00:51:09.358Z,88
2022-09-12T00:52:12.355Z,88
2022-09-12T00:53:16.675Z,88
2022-09-12T00:54:17.515Z,88
2022-09-12T00:55:20.530Z,88
2022-09-12T00:56:13.634Z,88
2022-09-12T00:57:28.613Z,88
2022-09-12T00:58:09.496Z,88
2022-09-12T00:59:18.946Z,88
2022-09-12T01:00:10.575Z,88
2022-09-12T01:01:15.300Z,88
2022-09-12T01:02:16.918Z,88
2022-09-12T01:03:16.364Z,88
2022-09-12T01:04:18.820Z,88
2022-09-12T01:05:12.801Z,88
2022-09-12T01:06:20.527Z,88
2022-09-12T01:07:12.230Z,88
2022-09-12T01:08:18.015Z,88
2022-09-12T01:09:17.030Z,88
2022-09-12T01:10:11.066Z,88
2022-09-12T01:11:21.500Z,88
2022-09-12T01:12:10.011Z,88
2022-09-12T01:13:20.032Z,88
2022-09-12T01:14:12.881Z,88
2022-09-12T01:15:19.155Z,88
2022-09-12T01:16:12.206Z,88
2022-09-12T01:17:16.784Z,88
2022-09-12T01:18:11.259Z,88
2022-09-12T01:19:17.652Z,88
2022-09-12T01:20:14.821Z,88
2022-09-12T01:21:12.365Z,88
2022-09-12T01:22:20.837Z,88
2022-09-12T01:23:09.322Z,88
2022-09-12T01:24:27.250Z,88
2022-09-12T01:25:09.742Z,88
2022-09-12T01:26:17.842Z,88
2022-09-12T01:28:11.131Z,88
2022-09-12T01:29:19.981Z,88
2022-09-12T01:30:14.900Z,88
2022-09-12T01:31:16.895Z,88
2022-09-12T01:32:12.250Z,88
2022-09-12T01:33:20.646Z,88
2022-09-12T01:34:14.319Z,88
2022-09-12T01:35:18.217Z,88
2022-09-12T01:36:10.134Z,88
2022-09-12T01:37:15.987Z,88
2022-09-12T01:38:14.579Z,88
2022-09-12T01:39:16.747Z,88
2022-09-12T01:40:12.790Z,88
2022-09-12T01:41:11.141Z,88
2022-09-12T01:42:16.831Z,88
2022-09-12T01:43:14.520Z,88
2022-09-12T01:44:18.514Z,88
2022-09-12T01:45:15.638Z,88
2022-09-12T01:46:15.494Z,88
2022-09-12T01:47:18.159Z,88
2022-09-12T01:48:14.996Z,88
2022-09-12T01:49:18.128Z,88
2022-09-12T01:50:09.870Z,88
2022-09-12T01:51:14.723Z,88
2022-09-12T01:52:18.063Z,88
2022-09-12T01:53:16.608Z,88
2022-09-12T01:54:16.141Z,88
2022-09-12T01:55:16.148Z,88
2022-09-12T01:56:10.555Z,88
2022-09-12T01:57:20.556Z,88
2022-09-12T01:58:11.486Z,88
2022-09-12T01:59:31.012Z,88
2022-09-12T02:00:09.877Z,88
2022-09-12T02:01:16.773Z,88
2022-09-12T02:02:15.570Z,88
2022-09-12T02:03:16.297Z,88
2022-09-12T02:04:15.969Z,88
2022-09-12T02:05:08.848Z,88
2022-09-12T02:06:15.235Z,88
2022-09-12T02:07:12.809Z,88
2022-09-12T02:08:24.233Z,88
2022-09-12T02:09:09.430Z,88
2022-09-12T02:10:18.320Z,88
2022-09-12T02:11:12.019Z,88
2022-09-12T02:12:16.217Z,88
2022-09-12T02:13:11.797Z,88
2022-09-12T02:14:14.524Z,88
2022-09-12T02:15:18.545Z,88
2022-09-12T02:16:18.919Z,88
2022-09-12T02:17:18.104Z,88
2022-09-12T02:18:11.496Z,88
2022-09-12T02:19:14.669Z,88
2022-09-12T02:20:37.367Z,88
2022-09-12T02:21:17.471Z,88
2022-09-12T02:22:12.804Z,88
2022-09-12T02:23:14.981Z,88
2022-09-12T02:24:18.227Z,88
2022-09-12T02:25:15.180Z,88
2022-09-12T02:26:20.088Z,88
2022-09-12T02:27:17.165Z,88
2022-09-12T02:28:12.837Z,88
2022-09-12T02:29:20.697Z,88
2022-09-12T02:30:09.143Z,88
2022-09-12T02:31:18.694Z,88
2022-09-12T02:32:10.526Z,88
2022-09-12T02:33:17.603Z,88
2022-09-12T02:34:17.320Z,88
2022-09-12T02:35:15.680Z,88
2022-09-12T02:36:09.515Z,88
2022-09-12T02:37:20.748Z,88
2022-09-12T02:38:08.474Z,88
2022-09-12T02:39:16.425Z,88
2022-09-12T02:40:10.280Z,88
2022-09-12T02:41:13.800Z,88
2022-09-12T02:42:14.831Z,88
2022-09-12T02:43:18.854Z,88
2022-09-12T02:44:18.459Z,88
2022-09-12T02:45:18.878Z,88
2022-09-12T02:46:18.818Z,88
2022-09-12T02:47:14.534Z,88
2022-09-12T02:48:19.651Z,88
2022-09-12T02:49:15.800Z,88
2022-09-12T02:50:19.592Z,88
2022-09-12T02:51:12.872Z,88
2022-09-12T02:52:16.295Z,88
2022-09-12T02:53:09.580Z,88
2022-09-12T02:54:16.563Z,88
2022-09-12T02:55:19.566Z,88
2022-09-12T02:56:10.639Z,88
2022-09-12T02:57:22.533Z,88
2022-09-12T02:58:13.289Z,88
2022-09-12T02:59:16.301Z,88
2022-09-12T03:00:12.670Z,88
2022-09-12T03:01:19.515Z,88
2022-09-12T03:02:10.083Z,88
2022-09-12T03:03:10.935Z,88
2022-09-12T03:04:17.970Z,88
2022-09-12T03:05:15.942Z,88
2022-09-12T03:06:20.294Z,88
2022-09-12T03:07:18.404Z,88
2022-09-12T03:08:19.818Z,88
2022-09-12T03:09:18.242Z,88
2022-09-12T03:10:11.408Z,88
2022-09-12T03:11:21.251Z,88
2022-09-12T03:12:16.482Z,88
2022-09-12T03:13:23.504Z,88
2022-09-12T03:14:14.173Z,88
2022-09-12T03:15:20.234Z,88
2022-09-12T03:16:11.626Z,88
2022-09-12T03:17:18.878Z,88
2022-09-12T03:18:12.655Z,88
2022-09-12T03:19:18.056Z,88
2022-09-12T03:20:09.603Z,88
2022-09-12T03:21:20.671Z,88
2022-09-12T03:22:13.446Z,88
2022-09-12T03:23:17.464Z,88
2022-09-12T03:24:18.717Z,88
2022-09-12T03:25:12.403Z,88
2022-09-12T03:26:16.100Z,88
2022-09-12T03:27:12.886Z,88
2022-09-12T03:28:18.576Z,88
2022-09-12T03:29:10.913Z,88
2022-09-12T03:30:19.430Z,88
2022-09-12T03:31:12.452Z,88
2022-09-12T03:32:37.830Z,88
2022-09-12T03:33:09.039Z,88
2022-09-12T03:34:17.860Z,88
2022-09-12T03:35:22.797Z,88
2022-09-12T03:36:15.102Z,88
2022-09-12T03:37:11.105Z,88
2022-09-12T03:38:17.871Z,88
2022-09-12T03:39:15.942Z,88
2022-09-12T03:40:15.254Z,88
2022-09-12T03:41:16.909Z,88
2022-09-12T03:42:15.073Z,88
2022-09-12T03:43:16.785Z,88
2022-09-12T03:44:10.337Z,88
2022-09-12T03:45:20.378Z,88
2022-09-12T03:46:09.619Z,88
2022-09-12T03:47:17.595Z,88
2022-09-12T03:48:14.611Z,88
2022-09-12T03:49:16.547Z,88
2022-09-12T03:50:18.594Z,88
2022-09-12T03:51:18.029Z,88
2022-09-12T03:52:11.963Z,88
2022-09-12T03:53:25.191Z,88
2022-09-12T03:54:10.786Z,88
2022-09-12T03:55:18.672Z,88
2022-09-12T03:56:12.825Z,88
2022-09-12T03:57:23.365Z,88
2022-09-12T03:58:10.861Z,88
2022-09-12T03:59:18.405Z,88
2022-09-12T04:00:21.755Z,88
2022-09-12T04:01:18.347Z,88
2022-09-12T04:02:10.727Z,88
2022-09-12T04:03:18.444Z,88
2022-09-12T04:04:15.631Z,88
2022-09-12T04:05:15.454Z,88
2022-09-12T04:06:17.810Z,88
2022-09-12T04:07:23.271Z,88
2022-09-12T04:08:09.353Z,88
2022-09-12T04:09:12.274Z,88
2022-09-12T04:10:16.143Z,88
2022-09-12T04:11:17.101Z,88
2022-09-12T04:12:16.796Z,88
2022-09-12T04:13:11.622Z,88
2022-09-12T04:14:12.736Z,88
2022-09-12T04:15:18.494Z,88
2022-09-12T04:16:14.247Z,88
2022-09-12T04:17:19.985Z,88
2022-09-12T04:18:19.428Z,88
2022-09-12T04:19:26.889Z,89
2022-09-12T04:20:09.377Z,89
2022-09-12T04:21:20.639Z,89
2022-09-12T04:22:11.796Z,89
2022-09-12T04:23:11.445Z,89
2022-09-12T04:24:20.274Z,89
2022-09-12T04:25:17.813Z,89
2022-09-12T04:26:09.536Z,89
2022-09-12T04:27:17.544Z,88
2022-09-12T04:28:15.102Z,89
2022-09-12T04:29:17.431Z,89
2022-09-12T04:30:20.789Z,89
2022-09-12T04:31:14.898Z,88
2022-09-12T04:32:22.724Z,88
2022-09-12T04:33:14.007Z,88
2022-09-12T04:34:16.522Z,88
2022-09-12T04:35:17.046Z,88
2022-09-12T04:36:16.006Z,88
2022-09-12T04:37:13.382Z,88
2022-09-12T04:38:14.858Z,88
2022-09-12T04:39:18.416Z,88
2022-09-12T04:40:11.171Z,88
2022-09-12T04:41:19.266Z,89
2022-09-12T04:42:09.549Z,89
2022-09-12T04:43:20.355Z,88
2022-09-12T04:44:19.011Z,88
2022-09-12T04:45:12.272Z,88
2022-09-12T04:46:17.264Z,88
2022-09-12T04:47:13.344Z,88
2022-09-12T04:48:17.103Z,88
2022-09-12T04:49:12.782Z,88
2022-09-12T04:50:16.074Z,88
2022-09-12T04:51:16.472Z,89
2022-09-12T04:52:16.870Z,88
2022-09-12T04:53:16.913Z,89
2022-09-12T04:54:14.766Z,88
2022-09-12T04:55:15.888Z,89
2022-09-12T04:56:15.361Z,89
2022-09-12T04:57:14.892Z,89
2022-09-12T04:58:16.610Z,89
2022-09-12T04:59:16.258Z,89
2022-09-12T05:00:18.794Z,89
2022-09-12T05:01:19.215Z,89
2022-09-12T05:02:17.019Z,89
2022-09-12T05:03:14.514Z,89
2022-09-12T05:04:18.243Z,89
2022-09-12T05:05:14.948Z,89
2022-09-12T05:07:16.025Z,89
2022-09-12T05:08:17.098Z,89
2022-09-12T05:09:14.787Z,89
2022-09-12T05:10:15.219Z,89
2022-09-12T05:11:15.060Z,89
2022-09-12T05:12:16.353Z,89
2022-09-12T05:13:14.084Z,89
2022-09-12T05:14:20.393Z,89
2022-09-12T05:15:09.807Z,89
2022-09-12T05:16:19.686Z,89
2022-09-12T05:17:19.235Z,89
2022-09-12T05:18:18.044Z,89
2022-09-12T05:19:15.523Z,89
2022-09-12T05:20:20.973Z,89
2022-09-12T05:21:17.474Z,89
2022-09-12T05:22:16.310Z,89
2022-09-12T05:23:15.953Z,89
2022-09-12T05:24:17.763Z,89
2022-09-12T05:25:16.346Z,89
2022-09-12T05:26:15.343Z,89
2022-09-12T05:27:17.659Z,89
2022-09-12T05:28:14.586Z,89
2022-09-12T05:29:20.262Z,89
2022-09-12T05:30:17.175Z,89
2022-09-12T05:31:17.172Z,89
2022-09-12T05:32:12.106Z,89
2022-09-12T05:33:24.523Z,89
2022-09-12T05:34:12.107Z,89
2022-09-12T05:35:18.698Z,89
2022-09-12T05:36:08.921Z,89
2022-09-12T05:37:15.088Z,89
2022-09-12T05:38:14.352Z,89
2022-09-12T05:39:16.319Z,89
2022-09-12T05:40:08.911Z,89
2022-09-12T05:41:28.896Z,89
2022-09-12T05:42:17.807Z,89
2022-09-12T05:43:18.080Z,89
2022-09-12T05:44:15.145Z,89
2022-09-12T05:45:16.107Z,89
2022-09-12T05:46:17.887Z,89
2022-09-12T05:47:14.926Z,89
2022-09-12T05:48:16.627Z,89
2022-09-12T05:49:16.543Z,89
2022-09-12T05:50:18.064Z,89
2022-09-12T05:51:16.117Z,89
2022-09-12T05:52:17.593Z,89
2022-09-12T05:53:22.205Z,89
2022-09-12T05:54:19.178Z,89
2022-09-12T05:55:18.911Z,89
2022-09-12T05:56:12.252Z,89
2022-09-12T05:57:18.384Z,89
2022-09-12T05:58:13.042Z,89
2022-09-12T05:59:10.545Z,89
2022-09-12T06:00:10.808Z,89
2022-09-12T06:01:16.559Z,89
2022-09-12T06:02:15.554Z,89
2022-09-12T06:03:16.643Z,89
2022-09-12T06:04:15.401Z,89
2022-09-12T06:05:15.278Z,89
2022-09-12T06:06:16.667Z,89
2022-09-12T06:07:16.561Z,89
2022-09-12T06:08:17.535Z,89
2022-09-12T06:09:15.210Z,89
2022-09-12T06:10:12.164Z,89
2022-09-12T06:11:15.044Z,89
2022-09-12T06:12:16.155Z,89
2022-09-12T06:13:21.785Z,89
2022-09-12T06:14:16.729Z,89
2022-09-12T06:15:15.468Z,89
2022-09-12T06:16:08.763Z,89
2022-09-12T06:17:15.665Z,89
2022-09-12T06:18:15.682Z,89
2022-09-12T06:19:20.191Z,89
2022-09-12T06:20:18.153Z,89
2022-09-12T06:21:13.318Z,89
2022-09-12T06:22:16.882Z,89
2022-09-12T06:23:15.020Z,89
2022-09-12T06:24:16.612Z,89
2022-09-12T06:25:19.021Z,89
2022-09-12T06:26:08.654Z,89
2022-09-12T06:27:14.816Z,89
2022-09-12T06:28:17.807Z,89
2022-09-12T06:29:15.180Z,89
2022-09-12T06:30:22.319Z,89
2022-09-12T06:31:09.320Z,89
2022-09-12T06:32:18.365Z,89
2022-09-12T06:33:20.860Z,89
2022-09-12T06:34:09.611Z,89
2022-09-12T06:35:18.207Z,89
2022-09-12T06:36:18.867Z,89
2022-09-12T06:37:17.525Z,89
2022-09-12T06:38:09.254Z,89
2022-09-12T06:39:15.537Z,89
2022-09-12T06:40:13.619Z,89
2022-09-12T06:41:14.925Z,89
2022-09-12T06:42:17.892Z,89
2022-09-12T06:43:23.372Z,89
2022-09-12T06:44:11.815Z,89
2022-09-12T06:45:21.887Z,89
2022-09-12T06:46:18.471Z,89
2022-09-12T06:47:15.212Z,89
2022-09-12T06:48:13.071Z,89
2022-09-12T06:49:15.037Z,89
2022-09-12T06:50:18.595Z,89
2022-09-12T06:51:17.259Z,89
2022-09-12T06:52:16.033Z,89
2022-09-12T06:53:16.305Z,89
2022-09-12T06:54:15.747Z,89
2022-09-12T06:55:23.547Z,89
2022-09-12T06:56:14.507Z,89
2022-09-12T06:57:08.965Z,89
2022-09-12T06:58:19.191Z,89
2022-09-12T06:59:14.124Z,89
2022-09-12T07:00:09.726Z,89
2022-09-12T07:01:14.732Z,89
2022-09-12T07:02:18.930Z,89
2022-09-12T07:03:15.510Z,88
2022-09-12T07:04:16.054Z,88
2022-09-12T07:05:16.138Z,88
2022-09-12T07:06:12.685Z,88
2022-09-12T07:07:15.087Z,88
2022-09-12T07:08:17.685Z,88
2022-09-12T07:09:16.641Z,88
2022-09-12T07:10:17.974Z,88
2022-09-12T07:11:15.315Z,88
2022-09-12T07:12:15.021Z,88
2022-09-12T07:13:19.065Z,88
2022-09-12T07:14:17.312Z,88
2022-09-12T07:15:11.113Z,88
2022-09-12T07:16:19.826Z,88
2022-09-12T07:17:09.114Z,88
2022-09-12T07:18:14.393Z,88
2022-09-12T07:19:16.587Z,88
2022-09-12T07:20:12.977Z,88
2022-09-12T07:21:15.897Z,88
2022-09-12T07:22:17.645Z,88
2022-09-12T07:23:14.879Z,88
2022-09-12T07:24:11.496Z,88
2022-09-12T07:25:17.678Z,88
2022-09-12T07:26:14.168Z,88
2022-09-12T07:27:16.063Z,88
2022-09-12T07:28:15.829Z,88
2022-09-12T07:29:42.192Z,88
2022-09-12T07:30:15.610Z,88
2022-09-12T07:31:16.254Z,88
2022-09-12T07:32:19.873Z,87
2022-09-12T07:33:09.322Z,87
2022-09-12T07:34:21.688Z,87
2022-09-12T07:35:12.263Z,87
2022-09-12T07:36:17.301Z,87
2022-09-12T07:37:15.627Z,87
2022-09-12T07:38:15.139Z,87
2022-09-12T07:39:16.795Z,87
2022-09-12T07:40:14.875Z,87
2022-09-12T07:41:14.245Z,87
2022-09-12T07:42:16.706Z,87
2022-09-12T07:43:12.960Z,87
2022-09-12T07:44:15.307Z,87
2022-09-12T07:45:10.316Z,87
2022-09-12T07:46:17.108Z,86
2022-09-12T07:47:12.031Z,86
2022-09-12T07:48:17.080Z,86
2022-09-12T07:49:14.793Z,86
2022-09-12T07:50:17.777Z,86
2022-09-12T07:51:16.759Z,86
2022-09-12T07:52:14.879Z,86
2022-09-12T07:53:17.279Z,86
2022-09-12T07:54:17.041Z,86
2022-09-12T07:55:16.545Z,86
2022-09-12T07:56:17.049Z,86
2022-09-12T07:57:12.743Z,86
2022-09-12T07:58:15.753Z,85
2022-09-12T07:59:18.905Z,85
2022-09-12T08:00:16.197Z,85
2022-09-12T08:01:15.919Z,85
2022-09-12T08:02:17.007Z,85
2022-09-12T08:03:17.276Z,85
2022-09-12T08:04:13.170Z,85
2022-09-12T08:05:17.386Z,85
2022-09-12T08:06:15.743Z,85
2022-09-12T08:07:09.302Z,85
2022-09-12T08:08:19.011Z,85
2022-09-12T08:09:09.707Z,85
2022-09-12T08:10:16.096Z,85
2022-09-12T08:11:12.553Z,84
2022-09-12T08:12:22.890Z,84
2022-09-12T08:13:10.782Z,84
2022-09-12T08:14:17.489Z,84
2022-09-12T08:15:11.909Z,84
2022-09-12T08:16:13.056Z,84
2022-09-12T08:17:17.718Z,83
2022-09-12T08:18:17.309Z,83
2022-09-12T08:19:17.736Z,83
2022-09-12T08:20:14.941Z,83
2022-09-12T08:21:16.200Z,83
2022-09-12T08:22:14.653Z,83
2022-09-12T08:23:14.431Z,83
2022-09-12T08:24:20.104Z,83
2022-09-12T08:25:12.934Z,83
2022-09-12T08:26:18.709Z,83
2022-09-12T08:27:08.842Z,83
2022-09-12T08:28:17.975Z,83
2022-09-12T08:29:17.164Z,83
2022-09-12T08:30:15.588Z,82
2022-09-12T08:31:16.083Z,82
2022-09-12T08:32:13.636Z,82
2022-09-12T08:33:10.459Z,82
2022-09-12T08:34:15.831Z,81
2022-09-12T08:35:15.756Z,81
2022-09-12T08:36:19.220Z,81
2022-09-12T08:37:14.554Z,81
2022-09-12T08:38:20.462Z,81
2022-09-12T08:39:12.490Z,80
2022-09-12T08:40:15.290Z,80
2022-09-12T08:41:16.336Z,80
2022-09-12T08:42:12.907Z,80
2022-09-12T08:43:16.096Z,80
2022-09-12T08:44:14.848Z,80
2022-09-12T08:45:16.486Z,79
2022-09-12T08:46:17.556Z,79
2022-09-12T08:47:15.317Z,79
2022-09-12T08:48:19.147Z,80
2022-09-12T08:49:13.832Z,80
2022-09-12T08:50:19.806Z,80
2022-09-12T08:51:09.090Z,80
2022-09-12T08:52:18.604Z,79
2022-09-12T08:53:15.531Z,79
2022-09-12T08:54:17.742Z,79
2022-09-12T08:55:12.128Z,79
2022-09-12T08:56:15.680Z,79
2022-09-12T08:57:16.534Z,79
2022-09-12T08:58:14.203Z,78
2022-09-12T08:59:12.333Z,78
2022-09-12T09:00:16.938Z,78
2022-09-12T09:01:17.526Z,78
2022-09-12T09:02:13.343Z,77
2022-09-12T09:03:15.315Z,77
2022-09-12T09:04:21.683Z,77
2022-09-12T09:05:11.351Z,77
2022-09-12T09:06:17.079Z,77
2022-09-12T09:07:17.292Z,77
2022-09-12T09:08:14.845Z,77
2022-09-12T09:09:18.639Z,77
2022-09-12T09:10:12.351Z,77
2022-09-12T09:11:19.089Z,76
2022-09-12T09:12:15.466Z,76
2022-09-12T09:13:17.722Z,76
2022-09-12T09:14:16.191Z,76
2022-09-12T09:15:17.080Z,76
2022-09-12T09:16:14.520Z,76
2022-09-12T09:17:16.834Z,76
2022-09-12T09:18:16.158Z,75
2022-09-12T09:19:13.764Z,75
2022-09-12T09:20:10.878Z,74
2022-09-12T09:21:19.333Z,74
2022-09-12T09:22:17.561Z,74
2022-09-12T09:23:16.552Z,74
2022-09-12T09:24:15.511Z,74
2022-09-12T09:25:19.749Z,74
2022-09-12T09:26:10.102Z,74
2022-09-12T09:27:46.173Z,74
2022-09-12T09:28:11.345Z,74
2022-09-12T09:29:15.877Z,74
2022-09-12T09:30:19.214Z,74
2022-09-12T09:31:15.352Z,74
2022-09-12T09:32:15.448Z,73
2022-09-12T09:33:15.651Z,73
2022-09-12T09:34:15.440Z,73
2022-09-12T09:35:16.597Z,73
2022-09-12T09:36:14.130Z,73
2022-09-12T09:37:19.385Z,73
2022-09-12T09:38:15.968Z,73
2022-09-12T09:39:14.905Z,73
2022-09-12T09:40:14.846Z,73
2022-09-12T09:41:17.705Z,73
2022-09-12T09:42:15.645Z,72
2022-09-12T09:43:15.921Z,72
2022-09-12T09:44:10.510Z,72
2022-09-12T09:45:17.189Z,72
2022-09-12T09:46:15.434Z,72
2022-09-12T09:47:17.277Z,72
2022-09-12T09:48:14.614Z,72
2022-09-12T09:49:16.795Z,71
2022-09-12T09:50:13.469Z,71
2022-09-12T09:51:17.081Z,70
2022-09-12T09:52:12.108Z,70
2022-09-12T09:53:17.768Z,70
2022-09-12T09:54:12.582Z,70
2022-09-12T09:55:20.169Z,69
2022-09-12T09:56:14.169Z,69
2022-09-12T09:57:15.670Z,69
2022-09-12T09:58:14.049Z,69
2022-09-12T09:59:16.656Z,69
2022-09-12T10:00:11.687Z,69
2022-09-12T10:01:16.133Z,69
2022-09-12T10:02:13.897Z,69
2022-09-12T10:03:22.619Z,69
2022-09-12T10:04:10.730Z,69
2022-09-12T10:05:20.517Z,68
2022-09-12T10:06:14.442Z,68
2022-09-12T10:07:14.928Z,68
2022-09-12T10:08:16.230Z,68
2022-09-12T10:09:15.479Z,68
2022-09-12T10:10:14.949Z,68
2022-09-12T10:11:14.321Z,68
2022-09-12T10:12:15.833Z,67
2022-09-12T10:13:15.953Z,67
2022-09-12T10:14:10.451Z,67
2022-09-12T10:15:15.282Z,67
2022-09-12T10:16:12.545Z,66
2022-09-12T10:17:17.150Z,66
2022-09-12T10:18:14.464Z,66
2022-09-12T10:19:17.422Z,65
2022-09-12T10:20:28.409Z,65
2022-09-12T10:21:19.324Z,65
2022-09-12T10:22:15.160Z,65
2022-09-12T10:23:18.122Z,65
2022-09-12T10:24:13.871Z,65
2022-09-12T10:25:15.433Z,66
2022-09-12T10:26:16.855Z,65
2022-09-12T10:27:15.366Z,65
2022-09-12T10:28:13.984Z,65
2022-09-12T10:29:14.897Z,65
2022-09-12T10:30:15.344Z,65
2022-09-12T10:31:16.668Z,65
2022-09-12T10:32:15.429Z,65
2022-09-12T10:33:21.291Z,65
2022-09-12T10:34:16.486Z,65
2022-09-12T10:35:15.347Z,64
2022-09-12T10:36:16.359Z,64
2022-09-12T10:37:12.394Z,64
2022-09-12T10:38:14.533Z,64
2022-09-12T10:39:18.143Z,64
2022-09-12T10:40:13.551Z,64
2022-09-12T10:41:16.493Z,64
2022-09-12T10:42:09.499Z,64
2022-09-12T10:43:16.367Z,64
2022-09-12T10:44:12.034Z,63
2022-09-12T10:45:18.752Z,63
2022-09-12T10:46:58.399Z,63
2022-09-12T10:47:18.970Z,63
2022-09-12T10:48:15.798Z,63
2022-09-12T10:49:17.948Z,63
2022-09-12T10:50:26.990Z,63
2022-09-12T10:51:14.749Z,62
2022-09-12T10:52:16.279Z,62
2022-09-12T10:53:16.301Z,62
2022-09-12T10:54:13.337Z,62
2022-09-12T10:55:16.825Z,62
2022-09-12T10:56:12.408Z,62
2022-09-12T10:57:16.226Z,62
2022-09-12T10:58:14.962Z,62
2022-09-12T10:59:11.086Z,62
2022-09-12T11:00:18.355Z,61
2022-09-12T11:01:16.979Z,61
2022-09-12T11:02:18.719Z,62
2022-09-12T11:03:12.806Z,62
2022-09-12T11:04:15.569Z,62
2022-09-12T11:05:23.541Z,61
2022-09-12T11:06:14.896Z,61
2022-09-12T11:07:17.705Z,61
2022-09-12T11:08:15.194Z,61
2022-09-12T11:09:16.149Z,61
2022-09-12T11:10:16.368Z,61
2022-09-12T11:11:17.285Z,61
2022-09-12T11:12:15.500Z,60
2022-09-12T11:13:16.828Z,60
2022-09-12T11:14:40.832Z,60
2022-09-12T11:15:16.528Z,60
2022-09-12T11:16:11.537Z,60
2022-09-12T11:17:19.663Z,60
2022-09-12T11:18:14.819Z,59
2022-09-12T11:19:16.914Z,59
2022-09-12T11:20:10.399Z,59
2022-09-12T11:21:17.789Z,59
2022-09-12T11:22:14.589Z,59
2022-09-12T11:23:18.925Z,59
2022-09-12T11:24:14.818Z,58
2022-09-12T11:25:24.563Z,58
2022-09-12T11:27:17.013Z,58
2022-09-12T11:28:14.741Z,58
2022-09-12T11:29:10.849Z,58
2022-09-12T11:30:25.844Z,58
2022-09-12T11:31:11.663Z,58
2022-09-12T11:32:16.688Z,58
2022-09-12T11:33:16.010Z,58
2022-09-12T11:34:17.366Z,58
2022-09-12T11:35:19.191Z,58
2022-09-12T11:36:15.493Z,58
2022-09-12T11:37:21.471Z,58
2022-09-12T11:38:10.770Z,58
2022-09-12T11:39:16.635Z,58
2022-09-12T11:40:14.445Z,58
2022-09-12T11:41:17.178Z,57
2022-09-12T11:42:13.445Z,57
2022-09-12T11:43:14.911Z,58
2022-09-12T11:44:12.058Z,58
2022-09-12T11:45:19.028Z,58
2022-09-12T11:46:11.483Z,58
2022-09-12T11:47:15.667Z,57
2022-09-12T11:48:16.480Z,57
2022-09-12T11:49:17.545Z,57
2022-09-12T11:50:21.059Z,57
2022-09-12T11:51:15.232Z,57
2022-09-12T11:52:17.606Z,56
2022-09-12T11:53:16.454Z,56
2022-09-12T11:54:14.902Z,56
2022-09-12T11:55:14.618Z,56
2022-09-12T11:56:14.915Z,56
2022-09-12T11:57:11.786Z,56
2022-09-12T11:58:14.324Z,56
2022-09-12T11:59:14.741Z,56
2022-09-12T12:00:11.317Z,56
2022-09-12T12:01:15.286Z,56
2022-09-12T12:02:16.507Z,56
2022-09-12T12:03:13.717Z,56
2022-09-12T12:04:16.079Z,56
2022-09-12T12:05:15.341Z,55
2022-09-12T12:06:16.627Z,55
2022-09-12T12:07:18.742Z,55
2022-09-12T12:08:10.353Z,55
2022-09-12T12:09:17.822Z,55
2022-09-12T12:10:11.225Z,55
2022-09-12T12:11:17.030Z,55
2022-09-12T12:12:11.505Z,55
2022-09-12T12:13:20.499Z,55
2022-09-12T12:14:12.559Z,55
2022-09-12T12:15:26.299Z,55
2022-09-12T12:16:09.433Z,55
2022-09-12T12:17:23.989Z,55
2022-09-12T12:18:14.851Z,55
2022-09-12T12:19:19.244Z,55
2022-09-12T12:20:18.373Z,55
2022-09-12T12:21:14.744Z,55
2022-09-12T12:22:14.848Z,55
2022-09-12T12:23:16.801Z,55
2022-09-12T12:24:13.173Z,55
2022-09-12T12:25:09.384Z,55
2022-09-12T12:26:12.935Z,55
2022-09-12T12:27:14.734Z,55
2022-09-12T12:28:15.156Z,54
2022-09-12T12:29:16.365Z,54
2022-09-12T12:30:14.234Z,54
2022-09-12T12:31:14.392Z,54
2022-09-12T12:32:21.168Z,54
2022-09-12T12:33:12.243Z,54
2022-09-12T12:34:10.317Z,54
2022-09-12T12:35:14.293Z,54
2022-09-12T12:36:15.820Z,54
2022-09-12T12:37:16.249Z,55
2022-09-12T12:38:16.948Z,55
2022-09-12T12:39:08.742Z,55
2022-09-12T12:40:18.500Z,55
2022-09-12T12:41:16.029Z,55
2022-09-12T12:42:26.562Z,56
2022-09-12T12:43:13.838Z,55
2022-09-12T12:44:16.865Z,55
2022-09-12T12:45:08.694Z,56
2022-09-12T12:46:13.748Z,56
2022-09-12T12:47:16.136Z,56
2022-09-12T12:48:15.493Z,56
2022-09-12T12:49:14.457Z,56
2022-09-12T12:50:17.480Z,56
2022-09-12T12:51:15.539Z,56
2022-09-12T12:52:15.742Z,56
2022-09-12T12:53:14.339Z,56
2022-09-12T12:54:19.324Z,56
2022-09-12T12:55:18.571Z,57
2022-09-12T12:56:12.476Z,56
2022-09-12T12:57:14.929Z,57
2022-09-12T12:58:23.473Z,57
2022-09-12T12:59:12.561Z,57
2022-09-12T13:00:17.957Z,57
2022-09-12T13:01:09.542Z,57
2022-09-12T13:02:21.275Z,57
2022-09-12T13:03:11.502Z,57
2022-09-12T13:04:16.590Z,57
2022-09-12T13:05:10.343Z,58
2022-09-12T13:06:20.363Z,58
2022-09-12T13:07:14.876Z,58
2022-09-12T13:08:09.531Z,58
2022-09-12T13:09:14.928Z,58
2022-09-12T13:10:15.648Z,58
2022-09-12T13:11:14.693Z,58
2022-09-12T13:12:17.616Z,58
2022-09-12T13:13:11.644Z,58
2022-09-12T13:14:16.439Z,58
2022-09-12T13:15:09.351Z,58
2022-09-12T13:16:18.052Z,58
2022-09-12T13:17:16.149Z,58
2022-09-12T13:18:17.690Z,58
2022-09-12T13:19:20.241Z,58
2022-09-12T13:20:34.099Z,58
2022-09-12T13:21:14.536Z,58
2022-09-12T13:22:13.418Z,58
2022-09-12T13:23:15.860Z,58
2022-09-12T13:24:17.519Z,58
2022-09-12T13:25:20.591Z,58
2022-09-12T13:26:10.585Z,58
2022-09-12T13:27:12.073Z,58
2022-09-12T13:28:16.133Z,58
2022-09-12T13:29:15.942Z,58
2022-09-12T13:30:17.749Z,58
2022-09-12T13:31:16.968Z,58
2022-09-12T13:32:15.637Z,58
2022-09-12T13:33:15.355Z,58
2022-09-12T13:34:16.836Z,58
2022-09-12T13:35:13.868Z,58
2022-09-12T13:36:16.917Z,57
2022-09-12T13:37:14.898Z,57
2022-09-12T13:38:16.750Z,58
2022-09-12T13:39:17.270Z,58
2022-09-12T13:40:17.684Z,58
2022-09-12T13:41:14.955Z,58
2022-09-12T13:42:17.955Z,57
2022-09-12T13:43:11.468Z,57
2022-09-12T13:44:25.563Z,57
2022-09-12T13:45:19.085Z,57
2022-09-12T13:46:17.958Z,57
2022-09-12T13:47:15.637Z,57
2022-09-12T13:48:16.744Z,57
2022-09-12T13:49:14.328Z,57
2022-09-12T13:50:17.172Z,57
2022-09-12T13:51:15.098Z,57
2022-09-12T13:52:15.395Z,57
2022-09-12T13:53:14.781Z,57
2022-09-12T13:54:13.887Z,57
2022-09-12T13:55:15.417Z,56
2022-09-12T13:56:12.690Z,56
2022-09-12T13:57:16.531Z,56
2022-09-12T13:58:16.036Z,56
2022-09-12T13:59:16.890Z,56
2022-09-12T14:00:15.155Z,56
2022-09-12T14:01:09.756Z,57
2022-09-12T14:02:15.797Z,57
2022-09-12T14:03:15.196Z,57
2022-09-12T14:04:10.848Z,57
2022-09-12T14:05:17.291Z,57
2022-09-12T14:06:15.536Z,57
2022-09-12T14:07:17.412Z,57
2022-09-12T14:08:16.651Z,56
2022-09-12T14:09:30.999Z,56
2022-09-12T14:10:18.808Z,56
2022-09-12T14:11:18.355Z,56
2022-09-12T14:12:16.569Z,56
2022-09-12T14:13:14.322Z,56
2022-09-12T14:14:17.501Z,56
2022-09-12T14:15:16.493Z,56
2022-09-12T14:16:11.607Z,56
2022-09-12T14:17:29.626Z,56
2022-09-12T14:18:11.087Z,56